• Join FlightAware (Why Join?)
  • Login
  • US Flag 
06:09PM EST


 

Airport Tracker/Info


-or-


 

Live Flight TrackerFlight Track Log ✈ MAU689 ✈ 22-Mar-2014 ✈ ZSPD / PVG - FIMP / MRU

Flight Track Log - Related Links

Times and Time Zones

All times are in EDT time to prevent confusion due to time zone crossing. See the MAU689 flight status page for this flight to view local times or setup timezone preferences in your user account.

Time Position Orientation Groundspeed Altitude Reporting Facility
EDT Latitude Longitude Course Direction KTS MPH feet Rate Location/Type
12:48PM 30.6341 120.8231 239° Southwest  Level Estimated
12:49PM 30.5771 120.7160 238° Southwest  Level Estimated
12:50PM 30.5200 120.6091 238° Southwest  Level Estimated
12:51PM 30.4629 120.5023 238° Southwest  Level Estimated
12:52PM 30.4057 120.3956 238° Southwest  Level Estimated
12:53PM 30.3483 120.2890 238° Southwest  Level Estimated
12:54PM 30.2909 120.1826 238° Southwest  Level Estimated
12:55PM 30.2334 120.0763 238° Southwest  Level Estimated
12:56PM 30.1759 119.9701 238° Southwest  Level Estimated
12:57PM 30.1182 119.8640 238° Southwest  Level Estimated
12:58PM 30.0605 119.7581 238° Southwest  Level Estimated
12:59PM 30.0026 119.6523 238° Southwest  Level Estimated
01:00PM 29.9447 119.5466 238° Southwest  Level Estimated
01:01PM 29.8867 119.4410 238° Southwest  Level Estimated
01:02PM 29.8286 119.3355 238° Southwest  Level Estimated
01:03PM 29.7705 119.2302 238° Southwest  Level Estimated
01:04PM 29.7122 119.1250 238° Southwest  Level Estimated
01:05PM 29.6539 119.0199 237° Southwest  Level Estimated
01:06PM 29.5955 118.9150 237° Southwest  Level Estimated
01:07PM 29.5370 118.8101 237° Southwest  Level Estimated
01:08PM 29.4784 118.7054 237° Southwest  Level Estimated
01:09PM 29.4197 118.6008 237° Southwest  Level Estimated
01:10PM 29.3610 118.4964 237° Southwest  Level Estimated
01:11PM 29.3022 118.3920 237° Southwest  Level Estimated
01:12PM 29.2432 118.2878 237° Southwest  Level Estimated
01:13PM 29.1842 118.1836 237° Southwest  Level Estimated
01:14PM 29.1252 118.0797 237° Southwest  Level Estimated
01:15PM 29.0660 117.9758 237° Southwest  Level Estimated
01:16PM 29.0068 117.8720 237° Southwest  Level Estimated
01:17PM 28.9475 117.7684 237° Southwest  Level Estimated
01:18PM 28.8881 117.6649 237° Southwest  Level Estimated
01:19PM 28.8286 117.5615 237° Southwest  Level Estimated
01:20PM 28.7691 117.4582 237° Southwest  Level Estimated
01:21PM 28.7095 117.3550 237° Southwest  Level Estimated
01:22PM 28.6498 117.2520 237° Southwest  Level Estimated
01:23PM 28.5900 117.1490 237° Southwest  Level Estimated
01:24PM 28.5301 117.0462 236° Southwest  Level Estimated
01:25PM 28.4702 116.9436 236° Southwest  Level Estimated
01:26PM 28.4102 116.8410 236° Southwest  Level Estimated
01:27PM 28.3501 116.7385 236° Southwest  Level Estimated
01:28PM 28.2899 116.6362 236° Southwest  Level Estimated
01:29PM 28.2297 116.5339 236° Southwest  Level Estimated
01:30PM 28.1694 116.4318 236° Southwest  Level Estimated
01:31PM 28.1090 116.3298 236° Southwest  Level Estimated
01:32PM 28.0485 116.2279 236° Southwest  Level Estimated
01:33PM 27.9880 116.1262 236° Southwest  Level Estimated
01:33PM 27.0858 120.0918 213° Southwest 399 459 32,100  Level FlightAware ADS-B
01:34PM 27.9274 116.0245 236° Southwest  Level Estimated
01:35PM 27.8667 115.9230 236° Southwest  Level Estimated
01:36PM 27.8059 115.8215 236° Southwest  Level Estimated
01:36PM 26.8436 119.9198 213° Southwest 400 460 32,100  Level FlightAware ADS-B
01:36PM 26.7724 119.8694 212° Southwest 400 460 32,100  Level FlightAware ADS-B
01:47PM 25.7171 119.2711 221° Southwest 401 461 32,100  Level FlightAware ADS-B
01:47PM 25.6661 119.2154 227° Southwest 397 457 32,100 -29 Level FlightAware ADS-B
01:50PM 25.4553 118.9675 227° Southwest 400 460 32,000 -353 Descending FlightAware ADS-B
01:52PM 25.2988 118.7846 227° Southwest 400 460 30,400 -788 Descending FlightAware ADS-B
01:53PM 25.2552 118.7336 227° Southwest 403 464 29,900 -789 Descending FlightAware ADS-B
01:53PM 25.2037 118.6736 227° Southwest 407 468 29,400 -71 Descending FlightAware ADS-B
02:20PM 23.0663 116.4174 214° Southwest 426 490 28,000 -52 Descending FlightAware ADS-B
02:20PM 23.0093 116.3764 214° Southwest 426 490 28,000  Level FlightAware ADS-B
02:22PM 22.8388 116.2544 212° Southwest 428 493 28,000  Level FlightAware ADS-B
02:23PM 22.7704 116.2170 204° Southwest 435 501 28,000  Level FlightAware ADS-B
02:24PM 22.6091 116.1752 184° South 452 520 28,000  Level FlightAware ADS-B
02:25PM 22.5251 116.1748 184° South 452 520 28,000  Level FlightAware ADS-B
02:25PM 22.4251 116.1765 184° South 452 520 28,000 320 Level FlightAware ADS-B
02:43PM 20.6180 115.1942 225° Southwest 422 486 34,000 325 Climbing FlightAware ADS-B
02:44PM 20.5758 115.1496 225° Southwest 422 486 34,000  Level FlightAware ADS-B
02:44PM 20.5355 115.1070 225° Southwest 422 486 34,000  Level FlightAware ADS-B
02:45PM 20.4924 115.0615 225° Southwest 422 486 34,000  Level FlightAware ADS-B
02:45PM 20.4510 115.0178 225° Southwest 422 486 34,000  Level FlightAware ADS-B
02:46PM 20.4104 114.9750 225° Southwest 422 486 34,000  Level FlightAware ADS-B
02:46PM 20.3681 114.9304 225° Southwest 422 486 34,000  Level FlightAware ADS-B
02:47PM 20.3282 114.8884 225° Southwest 422 486 34,000  Level FlightAware ADS-B
02:47PM 20.2858 114.8438 225° Southwest 424 488 34,000  Level FlightAware ADS-B
02:48PM 20.2419 114.7978 225° Southwest 424 488 34,000  Level FlightAware ADS-B
02:48PM 20.2025 114.7563 225° Southwest 424 488 34,000  Level FlightAware ADS-B
02:49PM 20.1591 114.7108 225° Southwest 424 488 34,000  Level FlightAware ADS-B
02:49PM 20.1163 114.6660 225° Southwest 424 488 34,000  Level FlightAware ADS-B
02:50PM 20.0765 114.6243 225° Southwest 424 488 34,000  Level FlightAware ADS-B
02:50PM 20.0511 114.5977 225° Southwest 424 488 34,000  Level FlightAware ADS-B
02:53PM 19.9233 114.3859 237° Southwest  Level Estimated
02:54PM 19.8647 114.2890 237° Southwest  Level Estimated
02:55PM 19.8060 114.1922 237° Southwest  Level Estimated
02:56PM 19.7473 114.0954 237° Southwest  Level Estimated
02:57PM 19.6885 113.9988 237° Southwest  Level Estimated
02:58PM 19.6297 113.9022 237° Southwest  Level Estimated
02:59PM 19.5708 113.8056 237° Southwest  Level Estimated
03:00PM 19.5119 113.7092 237° Southwest  Level Estimated
03:01PM 19.4529 113.6128 237° Southwest  Level Estimated
03:02PM 19.3939 113.5164 237° Southwest  Level Estimated
03:03PM 19.3348 113.4202 237° Southwest  Level Estimated
03:04PM 19.2756 113.3240 237° Southwest  Level Estimated
03:05PM 19.2164 113.2279 237° Southwest  Level Estimated
03:06PM 19.1572 113.1319 237° Southwest  Level Estimated
03:07PM 19.0979 113.0359 237° Southwest  Level Estimated
03:08PM 19.0386 112.9400 237° Southwest  Level Estimated
03:09PM 18.9792 112.8441 237° Southwest  Level Estimated
03:10PM 18.9198 112.7484 237° Southwest  Level Estimated
03:11PM 18.8603 112.6527 237° Southwest  Level Estimated
03:12PM 18.8008 112.5570 237° Southwest  Level Estimated
03:13PM 18.7412 112.4615 237° Southwest  Level Estimated
03:14PM 18.7020 112.3548 249° West  Level FlightAware Approximate
03:15PM 18.6423 112.2594 236° Southwest  Level Estimated
03:16PM 18.5833 112.1635 237° Southwest  Level FlightAware Approximate
03:17PM 18.5241 112.0678 237° Southwest  Level FlightAware Approximate
03:18PM 18.4650 111.9721 237° Southwest  Level FlightAware Approximate
03:19PM 18.4057 111.8765 237° Southwest  Level FlightAware Approximate
03:20PM 18.3465 111.7809 237° Southwest  Level FlightAware Approximate
03:21PM 18.2871 111.6854 237° Southwest  Level FlightAware Approximate
03:22PM 18.2278 111.5900 237° Southwest  Level FlightAware Approximate
03:23PM 18.1684 111.4946 237° Southwest  Level FlightAware Approximate
03:24PM 18.1089 111.3993 237° Southwest  Level FlightAware Approximate
03:25PM 18.0494 111.3041 237° Southwest  Level FlightAware Approximate
03:26PM 17.9898 111.2089 237° Southwest  Level FlightAware Approximate
03:27PM 17.9302 111.1138 237° Southwest  Level FlightAware Approximate
03:28PM 17.8706 111.0188 237° Southwest  Level FlightAware Approximate
03:29PM 17.8109 110.9238 237° Southwest  Level FlightAware Approximate
03:30PM 17.7511 110.8289 237° Southwest  Level FlightAware Approximate
03:31PM 17.6914 110.7341 237° Southwest  Level FlightAware Approximate
03:32PM 17.6315 110.6393 236° Southwest  Level FlightAware Approximate
03:33PM 17.5716 110.5445 236° Southwest  Level FlightAware Approximate
03:34PM 17.5117 110.4499 236° Southwest  Level FlightAware Approximate
03:35PM 17.4518 110.3553 236° Southwest  Level FlightAware Approximate
03:36PM 17.3911 110.2612 236° Southwest  Level Estimated
03:37PM 17.3307 110.1670 236° Southwest  Level FlightAware Approximate
03:38PM 17.2703 110.0728 236° Southwest  Level FlightAware Approximate
03:39PM 17.2099 109.9786 236° Southwest  Level FlightAware Approximate
03:40PM 17.1494 109.8845 236° Southwest  Level FlightAware Approximate
03:41PM 17.0889 109.7905 236° Southwest  Level FlightAware Approximate
03:42PM 17.0283 109.6966 236° Southwest  Level FlightAware Approximate
03:43PM 16.9677 109.6027 236° Southwest  Level FlightAware Approximate
03:44PM 16.9070 109.5088 236° Southwest  Level FlightAware Approximate
03:45PM 16.8459 109.4153 236° Southwest  Level Estimated
03:46PM 16.7853 109.3215 236° Southwest  Level FlightAware Approximate
03:47PM 16.7246 109.2278 236° Southwest  Level FlightAware Approximate
03:48PM 16.6639 109.1341 236° Southwest  Level FlightAware Approximate
03:49PM 16.6031 109.0405 236° Southwest  Level FlightAware Approximate
03:50PM 16.5423 108.9470 236° Southwest  Level FlightAware Approximate
03:51PM 16.4815 108.8535 236° Southwest  Level FlightAware Approximate
03:52PM 16.4206 108.7601 236° Southwest  Level FlightAware Approximate
03:53PM 16.3597 108.6667 236° Southwest  Level FlightAware Approximate
03:54PM 16.2987 108.5734 236° Southwest  Level FlightAware Approximate
03:55PM 16.2377 108.4801 236° Southwest  Level FlightAware Approximate
03:56PM 16.1766 108.3869 236° Southwest  Level FlightAware Approximate
03:57PM 16.1155 108.2938 236° Southwest  Level FlightAware Approximate
03:58PM 16.0539 108.2010 254° West  Level Estimated
03:59PM 16.0236 108.0928 254° West  Level FlightAware Approximate
04:00PM 15.9933 107.9846 254° West  Level FlightAware Approximate
04:01PM 15.9628 107.8765 254° West  Level FlightAware Approximate
04:02PM 15.9010 107.7840 254° West  Level Estimated
04:03PM 15.8766 107.6742 257° West  Level FlightAware Approximate
04:04PM 15.8521 107.5645 257° West  Level FlightAware Approximate
04:05PM 15.8276 107.4548 257° West  Level FlightAware Approximate
04:06PM 15.8030 107.3452 257° West  Level FlightAware Approximate
04:07PM 15.7784 107.2355 257° West  Level FlightAware Approximate
04:08PM 15.7161 107.1434 230° Southwest  Level Estimated
04:09PM 15.6460 107.0577 230° Southwest  Level FlightAware Approximate
04:10PM 15.5758 106.9720 230° Southwest  Level FlightAware Approximate
04:11PM 15.5056 106.8863 230° Southwest  Level FlightAware Approximate
04:12PM 15.4354 106.8007 230° Southwest  Level FlightAware Approximate
04:13PM 15.3651 106.7152 230° Southwest  Level FlightAware Approximate
04:14PM 15.2948 106.6297 230° Southwest  Level FlightAware Approximate
04:15PM 15.2245 106.5442 230° Southwest  Level FlightAware Approximate
04:16PM 15.1542 106.4589 230° Southwest  Level FlightAware Approximate
04:17PM 15.0838 106.3736 229° Southwest  Level FlightAware Approximate
04:18PM 15.0134 106.2883 229° Southwest  Level FlightAware Approximate
04:19PM 14.9429 106.2031 229° Southwest  Level FlightAware Approximate
04:20PM 14.8724 106.1180 229° Southwest  Level FlightAware Approximate
04:21PM 14.8019 106.0329 229° Southwest  Level FlightAware Approximate
04:22PM 14.7314 105.9478 229° Southwest  Level FlightAware Approximate
04:23PM 14.6608 105.8629 229° Southwest  Level FlightAware Approximate
04:24PM 14.5902 105.7779 229° Southwest  Level FlightAware Approximate
04:25PM 14.5196 105.6931 229° Southwest  Level FlightAware Approximate
04:26PM 14.4489 105.6083 229° Southwest  Level FlightAware Approximate
04:27PM 14.3782 105.5235 229° Southwest  Level FlightAware Approximate
04:28PM 14.3075 105.4388 229° Southwest  Level FlightAware Approximate
04:29PM 14.2367 105.3541 229° Southwest  Level FlightAware Approximate
04:30PM 14.1660 105.2695 229° Southwest  Level FlightAware Approximate
04:31PM 14.0951 105.1850 229° Southwest  Level FlightAware Approximate
04:32PM 14.0243 105.1005 229° Southwest  Level FlightAware Approximate
04:33PM 13.9534 105.0160 229° Southwest  Level FlightAware Approximate
04:34PM 13.8825 104.9316 229° Southwest  Level FlightAware Approximate
04:35PM 13.8116 104.8473 229° Southwest  Level FlightAware Approximate
04:36PM 13.7406 104.7630 229° Southwest  Level FlightAware Approximate
04:37PM 13.6696 104.6788 229° Southwest  Level FlightAware Approximate
04:38PM 13.5986 104.5946 229° Southwest  Level FlightAware Approximate
04:39PM 13.5276 104.5105 229° Southwest  Level FlightAware Approximate
04:40PM 13.4565 104.4264 229° Southwest  Level FlightAware Approximate
04:41PM 13.3854 104.3423 229° Southwest  Level FlightAware Approximate
04:42PM 13.3143 104.2583 229° Southwest  Level FlightAware Approximate
04:43PM 13.2431 104.1744 229° Southwest  Level FlightAware Approximate
04:44PM 13.1719 104.0905 229° Southwest  Level FlightAware Approximate
04:45PM 13.1007 104.0067 229° Southwest  Level FlightAware Approximate
04:46PM 13.0295 103.9229 229° Southwest  Level FlightAware Approximate
04:47PM 12.9582 103.8391 229° Southwest  Level FlightAware Approximate
04:48PM 12.8869 103.7554 229° Southwest  Level FlightAware Approximate
04:49PM 12.8156 103.6718 229° Southwest  Level FlightAware Approximate
04:50PM 12.7443 103.5882 229° Southwest  Level FlightAware Approximate
04:51PM 12.6729 103.5046 229° Southwest  Level FlightAware Approximate
04:52PM 12.6015 103.4212 229° Southwest  Level FlightAware Approximate
04:53PM 12.5301 103.3377 229° Southwest  Level FlightAware Approximate
04:54PM 12.4586 103.2543 229° Southwest  Level FlightAware Approximate
04:55PM 12.3871 103.1709 229° Southwest  Level FlightAware Approximate
04:56PM 12.3156 103.0876 229° Southwest  Level FlightAware Approximate
04:57PM 12.2441 103.0043 229° Southwest  Level FlightAware Approximate
04:58PM 12.1726 102.9211 229° Southwest  Level FlightAware Approximate
04:59PM 12.1010 102.8379 229° Southwest  Level FlightAware Approximate
05:00PM 12.0294 102.7548 229° Southwest  Level FlightAware Approximate
05:01PM 11.9578 102.6717 229° Southwest  Level FlightAware Approximate
05:02PM 11.8861 102.5886 229° Southwest  Level FlightAware Approximate
05:03PM 11.8145 102.5056 229° Southwest  Level FlightAware Approximate
05:04PM 11.7428 102.4226 229° Southwest  Level FlightAware Approximate
05:05PM 11.6710 102.3397 229° Southwest  Level FlightAware Approximate
05:06PM 11.5993 102.2568 229° Southwest  Level FlightAware Approximate
05:07PM 11.5275 102.1740 229° Southwest  Level FlightAware Approximate
05:08PM 11.4557 102.0912 229° Southwest  Level FlightAware Approximate
05:09PM 11.3839 102.0084 228° Southwest  Level FlightAware Approximate
05:10PM 11.3121 101.9257 228° Southwest  Level FlightAware Approximate
05:11PM 11.2402 101.8430 228° Southwest  Level FlightAware Approximate
05:12PM 11.1683 101.7604 228° Southwest  Level FlightAware Approximate
05:13PM 11.0964 101.6778 228° Southwest  Level FlightAware Approximate
05:14PM 11.0245 101.5953 228° Southwest  Level FlightAware Approximate
05:15PM 10.9525 101.5128 228° Southwest  Level FlightAware Approximate
05:16PM 10.8806 101.4303 228° Southwest  Level FlightAware Approximate
05:17PM 10.8086 101.3479 228° Southwest  Level FlightAware Approximate
05:18PM 10.7366 101.2655 228° Southwest  Level FlightAware Approximate
05:19PM 10.6645 101.1832 228° Southwest  Level FlightAware Approximate
05:20PM 10.5925 101.1008 228° Southwest  Level FlightAware Approximate
05:21PM 10.5204 101.0186 228° Southwest  Level FlightAware Approximate
05:22PM 10.4483 100.9363 228° Southwest  Level FlightAware Approximate
05:23PM 10.3761 100.8541 228° Southwest  Level FlightAware Approximate
05:24PM 10.3040 100.7720 228° Southwest  Level FlightAware Approximate
05:25PM 10.2318 100.6899 228° Southwest  Level FlightAware Approximate
05:26PM 10.1596 100.6078 228° Southwest  Level FlightAware Approximate
05:27PM 10.0874 100.5257 228° Southwest  Level FlightAware Approximate
05:28PM 10.0152 100.4437 228° Southwest  Level FlightAware Approximate
05:29PM 9.9430 100.3618 228° Southwest  Level FlightAware Approximate
05:30PM 9.8707 100.2798 228° Southwest  Level FlightAware Approximate
05:31PM 9.7984 100.1979 228° Southwest  Level FlightAware Approximate
05:32PM 9.7261 100.1161 228° Southwest  Level FlightAware Approximate
05:33PM 9.6538 100.0342 228° Southwest  Level FlightAware Approximate
05:34PM 9.5814 99.9525 228° Southwest  Level FlightAware Approximate
05:35PM 9.5091 99.8707 228° Southwest  Level FlightAware Approximate
05:36PM 9.4367 99.7890 228° Southwest  Level FlightAware Approximate
05:37PM 9.3643 99.7073 228° Southwest  Level FlightAware Approximate
05:38PM 9.2919 99.6256 228° Southwest  Level FlightAware Approximate
05:39PM 9.2194 99.5440 228° Southwest  Level FlightAware Approximate
05:40PM 9.1470 99.4624 228° Southwest  Level FlightAware Approximate
05:41PM 9.0745 99.3809 228° Southwest  Level FlightAware Approximate
05:42PM 9.0020 99.2993 228° Southwest  Level FlightAware Approximate
05:43PM 8.9295 99.2179 228° Southwest  Level FlightAware Approximate
05:44PM 8.8569 99.1364 228° Southwest  Level FlightAware Approximate
05:45PM 8.7844 99.0550 228° Southwest  Level FlightAware Approximate
05:46PM 8.7118 98.9736 228° Southwest  Level FlightAware Approximate
05:47PM 8.6392 98.8922 228° Southwest  Level FlightAware Approximate
05:48PM 8.5667 98.8109 228° Southwest  Level FlightAware Approximate
05:49PM 8.4940 98.7296 228° Southwest  Level FlightAware Approximate
05:50PM 8.4214 98.6483 228° Southwest  Level FlightAware Approximate
05:51PM 8.3488 98.5671 228° Southwest  Level FlightAware Approximate
05:52PM 8.2761 98.4859 228° Southwest  Level FlightAware Approximate
05:53PM 8.2034 98.4047 228° Southwest  Level FlightAware Approximate
05:54PM 8.1395 98.3164 240° Southwest  Level Estimated
05:55PM 8.0825 98.2233 238° Southwest  Level FlightAware Approximate
05:56PM 8.0255 98.1302 238° Southwest  Level FlightAware Approximate
05:57PM 7.9684 98.0372 238° Southwest  Level FlightAware Approximate
05:58PM 7.9114 97.9442 238° Southwest  Level FlightAware Approximate
05:59PM 7.8543 97.8513 238° Southwest  Level FlightAware Approximate
06:00PM 7.7972 97.7583 238° Southwest  Level FlightAware Approximate
06:01PM 7.7331 97.6702 238° Southwest  Level Estimated
06:02PM 7.6800 97.5749 241° Southwest  Level FlightAware Approximate
06:03PM 7.6158 97.4869 240° Southwest  Level Estimated
06:04PM 7.5626 97.3917 241° Southwest  Level FlightAware Approximate
06:05PM 7.5094 97.2965 241° Southwest  Level FlightAware Approximate
06:06PM 7.4562 97.2013 241° Southwest  Level FlightAware Approximate
06:07PM 7.4030 97.1061 241° Southwest  Level FlightAware Approximate
06:08PM 7.3497 97.0110 241° Southwest  Level FlightAware Approximate
06:09PM 7.2964 96.9159 241° Southwest  Level FlightAware Approximate
06:10PM 7.2320 96.8281 240° Southwest  Level Estimated
06:11PM 7.1789 96.7329 241° Southwest  Level FlightAware Approximate
06:12PM 7.1259 96.6377 241° Southwest  Level FlightAware Approximate
06:13PM 7.0728 96.5425 241° Southwest  Level FlightAware Approximate
06:14PM 7.0197 96.4474 241° Southwest  Level FlightAware Approximate
06:15PM 6.9666 96.3522 241° Southwest  Level FlightAware Approximate
06:16PM 6.9134 96.2571 241° Southwest  Level FlightAware Approximate
06:17PM 6.8603 96.1620 241° Southwest  Level FlightAware Approximate
06:18PM 6.8071 96.0670 241° Southwest  Level FlightAware Approximate
06:19PM 6.7423 95.9795 241° Southwest  Level Estimated
06:20PM 6.6934 95.8822 243° Southwest  Level FlightAware Approximate
06:21PM 6.6444 95.7849 243° Southwest  Level FlightAware Approximate
06:22PM 6.5795 95.6975 239° Southwest  Level Estimated
06:23PM 6.5266 95.6024 241° Southwest  Level FlightAware Approximate
06:24PM 6.4736 95.5073 241° Southwest  Level FlightAware Approximate
06:25PM 6.4207 95.4122 241° Southwest  Level FlightAware Approximate
06:26PM 6.3677 95.3171 241° Southwest  Level FlightAware Approximate
06:27PM 6.3146 95.2220 241° Southwest  Level FlightAware Approximate
06:28PM 6.2616 95.1270 241° Southwest  Level FlightAware Approximate
06:29PM 6.1965 95.0399 240° Southwest  Level Estimated
06:30PM 6.1459 94.9436 242° Southwest  Level FlightAware Approximate
06:31PM 6.0953 94.8472 242° Southwest  Level FlightAware Approximate
06:32PM 6.0446 94.7509 242° Southwest  Level FlightAware Approximate
06:33PM 5.9794 94.6639 234° Southwest  Level Estimated
06:34PM 5.9170 94.5749 235° Southwest  Level FlightAware Approximate
06:35PM 5.8546 94.4858 235° Southwest  Level FlightAware Approximate
06:36PM 5.7922 94.3968 235° Southwest  Level FlightAware Approximate
06:37PM 5.7298 94.3078 235° Southwest  Level FlightAware Approximate
06:38PM 5.6673 94.2188 235° Southwest  Level FlightAware Approximate
06:39PM 5.6049 94.1299 235° Southwest  Level FlightAware Approximate
06:40PM 5.5424 94.0410 235° Southwest  Level FlightAware Approximate
06:41PM 5.4799 93.9520 235° Southwest  Level FlightAware Approximate
06:42PM 5.4175 93.8631 235° Southwest  Level FlightAware Approximate
06:43PM 5.3520 93.7764 233° Southwest  Level Estimated
06:44PM 5.2866 93.6897 233° Southwest  Level FlightAware Approximate
06:45PM 5.2212 93.6029 233° Southwest  Level FlightAware Approximate
06:46PM 5.1558 93.5162 233° Southwest  Level FlightAware Approximate
06:47PM 5.0904 93.4295 233° Southwest  Level FlightAware Approximate
06:48PM 5.0249 93.3428 233° Southwest  Level FlightAware Approximate
06:49PM 4.9595 93.2562 233° Southwest  Level FlightAware Approximate
06:50PM 4.8940 93.1695 233° Southwest  Level FlightAware Approximate
06:51PM 4.8285 93.0829 233° Southwest  Level FlightAware Approximate
06:52PM 4.7630 92.9963 233° Southwest  Level FlightAware Approximate
06:53PM 4.6975 92.9097 233° Southwest  Level FlightAware Approximate
06:54PM 4.6320 92.8232 233° Southwest  Level FlightAware Approximate
06:55PM 4.5665 92.7366 233° Southwest  Level FlightAware Approximate
06:56PM 4.5010 92.6501 233° Southwest  Level FlightAware Approximate
06:57PM 4.4354 92.5635 233° Southwest  Level FlightAware Approximate
06:58PM 4.3699 92.4770 233° Southwest  Level FlightAware Approximate
06:59PM 4.3043 92.3905 233° Southwest  Level FlightAware Approximate
07:00PM 4.2387 92.3040 233° Southwest  Level FlightAware Approximate
07:01PM 4.1732 92.2176 233° Southwest  Level FlightAware Approximate
07:02PM 4.1076 92.1311 233° Southwest  Level FlightAware Approximate
07:03PM 4.0420 92.0447 233° Southwest  Level FlightAware Approximate
07:04PM 3.9763 91.9583 232° Southwest  Level Estimated
07:05PM 3.9102 91.8723 232° Southwest  Level FlightAware Approximate
07:06PM 3.8440 91.7863 232° Southwest  Level FlightAware Approximate
07:07PM 3.7778 91.7004 232° Southwest  Level FlightAware Approximate
07:08PM 3.7116 91.6144 232° Southwest  Level FlightAware Approximate
07:09PM 3.6454 91.5285 232° Southwest  Level FlightAware Approximate
07:10PM 3.5791 91.4426 232° Southwest  Level FlightAware Approximate
07:11PM 3.5129 91.3567 232° Southwest  Level FlightAware Approximate
07:12PM 3.4467 91.2708 232° Southwest  Level FlightAware Approximate
07:13PM 3.3805 91.1849 232° Southwest  Level FlightAware Approximate
07:14PM 3.3142 91.0991 232° Southwest  Level FlightAware Approximate
07:15PM 3.2479 91.0132 232° Southwest  Level FlightAware Approximate
07:16PM 3.1817 90.9274 232° Southwest  Level FlightAware Approximate
07:17PM 3.1154 90.8415 232° Southwest  Level FlightAware Approximate
07:18PM 3.0491 90.7557 232° Southwest  Level FlightAware Approximate
07:19PM 2.9829 90.6699 232° Southwest  Level FlightAware Approximate
07:20PM 2.9166 90.5841 232° Southwest  Level FlightAware Approximate
07:21PM 2.8503 90.4983 232° Southwest  Level FlightAware Approximate
07:22PM 2.7840 90.4125 232° Southwest  Level FlightAware Approximate
07:23PM 2.7176 90.3267 232° Southwest  Level FlightAware Approximate
07:24PM 2.6513 90.2410 232° Southwest  Level FlightAware Approximate
07:25PM 2.5850 90.1552 232° Southwest  Level FlightAware Approximate
07:26PM 2.5187 90.0695 232° Southwest  Level FlightAware Approximate
07:27PM 2.4523 89.9837 232° Southwest  Level FlightAware Approximate
07:28PM 2.3860 89.8980 232° Southwest  Level FlightAware Approximate
07:29PM 2.3197 89.8123 232° Southwest  Level FlightAware Approximate
07:30PM 2.2539 89.7262 233° Southwest  Level Estimated
07:31PM 2.1881 89.6400 233° Southwest  Level FlightAware Approximate
07:32PM 2.1222 89.5539 233° Southwest  Level FlightAware Approximate
07:33PM 2.0564 89.4678 233° Southwest  Level FlightAware Approximate
07:34PM 1.9906 89.3817 233° Southwest  Level FlightAware Approximate
07:35PM 1.9247 89.2956 233° Southwest  Level FlightAware Approximate
07:36PM 1.8589 89.2095 233° Southwest  Level FlightAware Approximate
07:37PM 1.7931 89.1234 233° Southwest  Level FlightAware Approximate
07:38PM 1.7272 89.0374 233° Southwest  Level FlightAware Approximate
07:39PM 1.6614 88.9513 233° Southwest  Level FlightAware Approximate
07:40PM 1.5955 88.8652 233° Southwest  Level FlightAware Approximate
07:41PM 1.5278 88.7767 233° Southwest  Level FlightAware Approximate
07:42PM 1.4601 88.6882 233° Southwest  Level Estimated
07:43PM 1.3924 88.5997 233° Southwest  Level FlightAware Approximate
07:44PM 1.3248 88.5111 233° Southwest  Level FlightAware Approximate
07:45PM 1.2572 88.4225 233° Southwest  Level FlightAware Approximate
07:46PM 1.1895 88.3340 233° Southwest  Level FlightAware Approximate
07:47PM 1.1218 88.2455 233° Southwest  Level FlightAware Approximate
07:48PM 1.0542 88.1569 233° Southwest  Level FlightAware Approximate
07:49PM 0.9865 88.0684 233° Southwest  Level FlightAware Approximate
07:50PM 0.9189 87.9798 233° Southwest  Level FlightAware Approximate
07:51PM 0.8512 87.8913 233° Southwest  Level FlightAware Approximate
07:52PM 0.7835 87.8028 233° Southwest  Level FlightAware Approximate
07:53PM 0.7159 87.7142 233° Southwest  Level FlightAware Approximate
07:54PM 0.6482 87.6257 233° Southwest  Level FlightAware Approximate
07:55PM 0.5805 87.5372 233° Southwest  Level FlightAware Approximate
07:56PM 0.5129 87.4487 233° Southwest  Level FlightAware Approximate
07:57PM 0.4452 87.3602 233° Southwest  Level FlightAware Approximate
07:58PM 0.3775 87.2717 233° Southwest  Level FlightAware Approximate
07:59PM 0.3098 87.1832 233° Southwest  Level FlightAware Approximate
08:00PM 0.2422 87.0946 233° Southwest  Level FlightAware Approximate
08:01PM 0.1745 87.0061 233° Southwest  Level FlightAware Approximate
08:02PM 0.1068 86.9176 233° Southwest  Level FlightAware Approximate
08:03PM 0.0391 86.8291 233° Southwest  Level FlightAware Approximate
08:04PM -0.0285 86.7406 233° Southwest  Level FlightAware Approximate
08:05PM -0.0962 86.6521 233° Southwest  Level FlightAware Approximate
08:06PM -0.1639 86.5636 233° Southwest  Level FlightAware Approximate
08:07PM -0.2316 86.4751 233° Southwest  Level FlightAware Approximate
08:08PM -0.2993 86.3866 233° Southwest  Level Estimated
08:09PM -0.3670 86.2981 233° Southwest  Level FlightAware Approximate
08:10PM -0.4346 86.2095 233° Southwest  Level FlightAware Approximate
08:11PM -0.5023 86.1210 233° Southwest  Level FlightAware Approximate
08:12PM -0.5699 86.0325 233° Southwest  Level FlightAware Approximate
08:13PM -0.6376 85.9439 233° Southwest  Level FlightAware Approximate
08:14PM -0.7052 85.8554 233° Southwest  Level FlightAware Approximate
08:15PM -0.7729 85.7668 233° Southwest  Level FlightAware Approximate
08:16PM -0.8405 85.6783 233° Southwest  Level FlightAware Approximate
08:17PM -0.9081 85.5897 233° Southwest  Level FlightAware Approximate
08:18PM -0.9758 85.5012 233° Southwest  Level FlightAware Approximate
08:19PM -1.0434 85.4126 233° Southwest  Level FlightAware Approximate
08:20PM -1.1110 85.3241 233° Southwest  Level FlightAware Approximate
08:21PM -1.1787 85.2355 233° Southwest  Level FlightAware Approximate
08:22PM -1.2463 85.1469 233° Southwest  Level FlightAware Approximate
08:23PM -1.3139 85.0583 233° Southwest  Level FlightAware Approximate
08:24PM -1.3815 84.9698 233° Southwest  Level FlightAware Approximate
08:25PM -1.4493 84.8813 233° Southwest  Level Estimated
08:26PM -1.5169 84.7927 233° Southwest  Level FlightAware Approximate
08:27PM -1.5846 84.7042 233° Southwest  Level FlightAware Approximate
08:28PM -1.6522 84.6156 233° Southwest  Level FlightAware Approximate
08:29PM -1.7198 84.5270 233° Southwest  Level FlightAware Approximate
08:30PM -1.7875 84.4384 233° Southwest  Level FlightAware Approximate
08:31PM -1.8551 84.3498 233° Southwest  Level FlightAware Approximate
08:32PM -1.9227 84.2612 233° Southwest  Level FlightAware Approximate
08:33PM -1.9905 84.1727 233° Southwest  Level Estimated
08:34PM -2.0581 84.0841 233° Southwest  Level FlightAware Approximate
08:35PM -2.1257 83.9955 233° Southwest  Level FlightAware Approximate
08:36PM -2.1933 83.9068 233° Southwest  Level FlightAware Approximate
08:37PM -2.2609 83.8182 233° Southwest  Level FlightAware Approximate
08:38PM -2.3285 83.7296 233° Southwest  Level FlightAware Approximate
08:39PM -2.3960 83.6409 233° Southwest  Level FlightAware Approximate
08:40PM -2.4636 83.5522 233° Southwest  Level FlightAware Approximate
08:41PM -2.5312 83.4635 233° Southwest  Level FlightAware Approximate
08:42PM -2.5988 83.3749 233° Southwest  Level FlightAware Approximate
08:43PM -2.6663 83.2862 233° Southwest  Level FlightAware Approximate
08:44PM -2.7339 83.1975 233° Southwest  Level FlightAware Approximate
08:45PM -2.8014 83.1088 233° Southwest  Level FlightAware Approximate
08:46PM -2.8690 83.0200 233° Southwest  Level FlightAware Approximate
08:47PM -2.9365 82.9313 233° Southwest  Level FlightAware Approximate
08:48PM -3.0040 82.8426 233° Southwest  Level FlightAware Approximate
08:49PM -3.0715 82.7538 233° Southwest  Level FlightAware Approximate
08:50PM -3.1391 82.6650 233° Southwest  Level FlightAware Approximate
08:51PM -3.2065 82.5763 233° Southwest  Level FlightAware Approximate
08:52PM -3.2740 82.4875 233° Southwest  Level FlightAware Approximate
08:53PM -3.3415 82.3987 233° Southwest  Level FlightAware Approximate
08:54PM -3.4090 82.3099 233° Southwest  Level FlightAware Approximate
08:55PM -3.4765 82.2210 233° Southwest  Level FlightAware Approximate
08:56PM -3.5440 82.1322 233° Southwest  Level FlightAware Approximate
08:57PM -3.6114 82.0433 233° Southwest  Level FlightAware Approximate
08:58PM -3.6789 81.9545 233° Southwest  Level FlightAware Approximate
08:59PM -3.7463 81.8656 233° Southwest  Level FlightAware Approximate
09:00PM -3.8137 81.7767 233° Southwest  Level FlightAware Approximate
09:01PM -3.8812 81.6878 233° Southwest  Level FlightAware Approximate
09:02PM -3.9486 81.5989 233° Southwest  Level FlightAware Approximate
09:03PM -4.0160 81.5099 233° Southwest  Level FlightAware Approximate
09:04PM -4.0834 81.4210 233° Southwest  Level FlightAware Approximate
09:05PM -4.1507 81.3320 233° Southwest  Level FlightAware Approximate
09:06PM -4.2181 81.2430 233° Southwest  Level FlightAware Approximate
09:07PM -4.2855 81.1540 233° Southwest  Level FlightAware Approximate
09:08PM -4.3528 81.0650 233° Southwest  Level FlightAware Approximate
09:09PM -4.4202 80.9760 233° Southwest  Level FlightAware Approximate
09:10PM -4.4875 80.8870 233° Southwest  Level FlightAware Approximate
09:11PM -4.5548 80.7979 233° Southwest  Level FlightAware Approximate
09:12PM -4.6221 80.7088 233° Southwest  Level FlightAware Approximate
09:13PM -4.6894 80.6197 233° Southwest  Level FlightAware Approximate
09:14PM -4.7567 80.5306 233° Southwest  Level FlightAware Approximate
09:15PM -4.8240 80.4415 233° Southwest  Level FlightAware Approximate
09:16PM -4.8912 80.3523 233° Southwest  Level FlightAware Approximate
09:17PM -4.9585 80.2632 233° Southwest  Level FlightAware Approximate
09:18PM -5.0257 80.1740 233° Southwest  Level FlightAware Approximate
09:19PM -5.0930 80.0848 233° Southwest  Level FlightAware Approximate
09:20PM -5.1602 79.9956 233° Southwest  Level FlightAware Approximate
09:21PM -5.2274 79.9063 233° Southwest  Level FlightAware Approximate
09:22PM -5.2946 79.8171 233° Southwest  Level FlightAware Approximate
09:23PM -5.3617 79.7278 233° Southwest  Level FlightAware Approximate
09:24PM -5.4289 79.6385 233° Southwest  Level FlightAware Approximate
09:25PM -5.4961 79.5492 233° Southwest  Level FlightAware Approximate
09:26PM -5.5632 79.4599 233° Southwest  Level FlightAware Approximate
09:27PM -5.6303 79.3705 233° Southwest  Level FlightAware Approximate
09:28PM -5.6974 79.2811 233° Southwest  Level FlightAware Approximate
09:29PM -5.7645 79.1917 233° Southwest  Level FlightAware Approximate
09:30PM -5.8316 79.1023 233° Southwest  Level FlightAware Approximate
09:31PM -5.8988 79.0130 233° Southwest  Level Estimated
09:32PM -5.9659 78.9235 233° Southwest  Level FlightAware Approximate
09:33PM -6.0329 78.8340 233° Southwest  Level FlightAware Approximate
09:34PM -6.0999 78.7445 233° Southwest  Level FlightAware Approximate
09:35PM -6.1669 78.6550 233° Southwest  Level FlightAware Approximate
09:36PM -6.2339 78.5654 233° Southwest  Level FlightAware Approximate
09:37PM -6.3009 78.4759 233° Southwest  Level FlightAware Approximate
09:38PM -6.3679 78.3863 233° Southwest  Level FlightAware Approximate
09:39PM -6.4348 78.2966 233° Southwest  Level FlightAware Approximate
09:40PM -6.5017 78.2070 233° Southwest  Level FlightAware Approximate
09:41PM -6.5687 78.1173 233° Southwest  Level FlightAware Approximate
09:42PM -6.6356 78.0276 233° Southwest  Level FlightAware Approximate
09:43PM -6.7024 77.9379 233° Southwest  Level FlightAware Approximate
09:44PM -6.7693 77.8482 233° Southwest  Level FlightAware Approximate
09:45PM -6.8362 77.7584 233° Southwest  Level FlightAware Approximate
09:46PM -6.9030 77.6686 233° Southwest  Level FlightAware Approximate
09:47PM -6.9698 77.5788 233° Southwest  Level FlightAware Approximate
09:48PM -7.0366 77.4890 233° Southwest  Level FlightAware Approximate
09:49PM -7.1034 77.3991 233° Southwest  Level FlightAware Approximate
09:50PM -7.1702 77.3092 233° Southwest  Level FlightAware Approximate
09:51PM -7.2369 77.2193 233° Southwest  Level FlightAware Approximate
09:52PM -7.3037 77.1293 233° Southwest  Level FlightAware Approximate
09:53PM -7.3704 77.0393 233° Southwest  Level FlightAware Approximate
09:54PM -7.4371 76.9493 233° Southwest  Level FlightAware Approximate
09:55PM -7.5037 76.8593 233° Southwest  Level FlightAware Approximate
09:56PM -7.5704 76.7692 233° Southwest  Level FlightAware Approximate
09:57PM -7.6371 76.6792 233° Southwest  Level FlightAware Approximate
09:58PM -7.7037 76.5891 233° Southwest  Level FlightAware Approximate
09:59PM -7.7703 76.4989 233° Southwest  Level FlightAware Approximate
10:00PM -7.8369 76.4087 233° Southwest  Level FlightAware Approximate
10:01PM -7.9034 76.3185 233° Southwest  Level FlightAware Approximate
10:02PM -7.9700 76.2283 233° Southwest  Level FlightAware Approximate
10:03PM -8.0365 76.1381 233° Southwest  Level FlightAware Approximate
10:04PM -8.1030 76.0478 233° Southwest  Level FlightAware Approximate
10:05PM -8.1695 75.9575 233° Southwest  Level FlightAware Approximate
10:06PM -8.2360 75.8671 233° Southwest  Level FlightAware Approximate
10:07PM -8.3024 75.7767 233° Southwest  Level FlightAware Approximate
10:08PM -8.3688 75.6863 233° Southwest  Level FlightAware Approximate
10:09PM -8.4352 75.5959 233° Southwest  Level FlightAware Approximate
10:10PM -8.5016 75.5054 233° Southwest  Level FlightAware Approximate
10:11PM -8.5680 75.4149 233° Southwest  Level FlightAware Approximate
10:12PM -8.6343 75.3244 233° Southwest  Level FlightAware Approximate
10:13PM -8.7007 75.2338 233° Southwest  Level FlightAware Approximate
10:14PM -8.7669 75.1432 233° Southwest  Level FlightAware Approximate
10:15PM -8.8332 75.0526 233° Southwest  Level FlightAware Approximate
10:16PM -8.8996 74.9621 233° Southwest  Level Estimated
10:17PM -8.9659 74.8714 233° Southwest  Level FlightAware Approximate
10:18PM -9.0322 74.7807 234° Southwest  Level FlightAware Approximate
10:19PM -9.0984 74.6900 234° Southwest  Level FlightAware Approximate
10:20PM -9.1646 74.5992 234° Southwest  Level FlightAware Approximate
10:21PM -9.2308 74.5084 234° Southwest  Level FlightAware Approximate
10:22PM -9.2970 74.4176 234° Southwest  Level FlightAware Approximate
10:23PM -9.3631 74.3267 234° Southwest  Level FlightAware Approximate
10:24PM -9.4292 74.2358 234° Southwest  Level FlightAware Approximate
10:25PM -9.4953 74.1449 234° Southwest  Level FlightAware Approximate
10:26PM -9.5614 74.0539 234° Southwest  Level FlightAware Approximate
10:27PM -9.6274 73.9629 234° Southwest  Level FlightAware Approximate
10:28PM -9.6935 73.8718 234° Southwest  Level FlightAware Approximate
10:29PM -9.7595 73.7808 234° Southwest  Level FlightAware Approximate
10:30PM -9.8254 73.6897 234° Southwest  Level FlightAware Approximate
10:31PM -9.8914 73.5985 234° Southwest  Level FlightAware Approximate
10:32PM -9.9573 73.5073 234° Southwest  Level FlightAware Approximate
10:33PM -10.0232 73.4161 234° Southwest  Level FlightAware Approximate
10:34PM -10.0891 73.3248 234° Southwest  Level FlightAware Approximate
10:35PM -10.1550 73.2335 234° Southwest  Level FlightAware Approximate
10:36PM -10.2208 73.1422 234° Southwest  Level FlightAware Approximate
10:37PM -10.2866 73.0508 234° Southwest  Level FlightAware Approximate
10:38PM -10.3524 72.9594 234° Southwest  Level FlightAware Approximate
10:39PM -10.4181 72.8680 234° Southwest  Level FlightAware Approximate
10:40PM -10.4838 72.7765 234° Southwest  Level FlightAware Approximate
10:41PM -10.5495 72.6850 234° Southwest  Level FlightAware Approximate
10:42PM -10.6152 72.5934 234° Southwest  Level FlightAware Approximate
10:43PM -10.6808 72.5018 234° Southwest  Level FlightAware Approximate
10:44PM -10.7465 72.4101 234° Southwest  Level FlightAware Approximate
10:45PM -10.8120 72.3185 234° Southwest  Level FlightAware Approximate
10:46PM -10.8776 72.2267 234° Southwest  Level FlightAware Approximate
10:47PM -10.9431 72.1350 234° Southwest  Level FlightAware Approximate
10:48PM -11.0086 72.0432 234° Southwest  Level FlightAware Approximate
10:49PM -11.0741 71.9513 234° Southwest  Level FlightAware Approximate
10:50PM -11.1396 71.8594 234° Southwest  Level FlightAware Approximate
10:51PM -11.2050 71.7675 234° Southwest  Level FlightAware Approximate
10:52PM -11.2704 71.6755 234° Southwest  Level FlightAware Approximate
10:53PM -11.3358 71.5835 234° Southwest  Level FlightAware Approximate
10:54PM -11.4011 71.4914 234° Southwest  Level FlightAware Approximate
10:55PM -11.4664 71.3994 234° Southwest  Level FlightAware Approximate
10:56PM -11.5317 71.3072 234° Southwest  Level FlightAware Approximate
10:57PM -11.5970 71.2150 234° Southwest  Level FlightAware Approximate
10:58PM -11.6622 71.1228 234° Southwest  Level FlightAware Approximate
10:59PM -11.7274 71.0305 234° Southwest  Level FlightAware Approximate
11:00PM -11.7926 70.9382 234° Southwest  Level FlightAware Approximate
11:01PM -11.8577 70.8459 234° Southwest  Level FlightAware Approximate
11:02PM -11.9228 70.7535 234° Southwest  Level FlightAware Approximate
11:03PM -11.9879 70.6610 234° Southwest  Level FlightAware Approximate
11:04PM -12.0529 70.5685 234° Southwest  Level FlightAware Approximate
11:05PM -12.1179 70.4760 234° Southwest  Level FlightAware Approximate
11:06PM -12.1829 70.3834 234° Southwest  Level FlightAware Approximate
11:07PM -12.2479 70.2908 234° Southwest  Level FlightAware Approximate
11:08PM -12.3128 70.1981 234° Southwest  Level FlightAware Approximate
11:09PM -12.3777 70.1054 234° Southwest  Level FlightAware Approximate
11:10PM -12.4427 70.0128 234° Southwest  Level Estimated
11:11PM -12.5076 69.9200 234° Southwest  Level FlightAware Approximate
11:12PM -12.5723 69.8271 234° Southwest  Level FlightAware Approximate
11:13PM -12.6371 69.7342 234° Southwest  Level FlightAware Approximate
11:14PM -12.7018 69.6412 234° Southwest  Level FlightAware Approximate
11:15PM -12.7665 69.5482 234° Southwest  Level FlightAware Approximate
11:16PM -12.8312 69.4552 235° Southwest  Level FlightAware Approximate
11:17PM -12.8958 69.3621 235° Southwest  Level FlightAware Approximate
11:18PM -12.9604 69.2690 235° Southwest  Level FlightAware Approximate
11:19PM -13.0250 69.1758 235° Southwest  Level FlightAware Approximate
11:20PM -13.0895 69.0825 235° Southwest  Level FlightAware Approximate
11:21PM -13.1540 68.9892 235° Southwest  Level FlightAware Approximate
11:22PM -13.2185 68.8959 235° Southwest  Level FlightAware Approximate
11:23PM -13.2829 68.8025 235° Southwest  Level FlightAware Approximate
11:24PM -13.3473 68.7091 235° Southwest  Level FlightAware Approximate
11:25PM -13.4117 68.6156 235° Southwest  Level FlightAware Approximate
11:26PM -13.4760 68.5221 235° Southwest  Level FlightAware Approximate
11:27PM -13.5403 68.4285 235° Southwest  Level FlightAware Approximate
11:28PM -13.6046 68.3348 235° Southwest  Level FlightAware Approximate
11:29PM -13.6688 68.2411 235° Southwest  Level FlightAware Approximate
11:30PM -13.7330 68.1474 235° Southwest  Level FlightAware Approximate
11:31PM -13.7971 68.0536 235° Southwest  Level FlightAware Approximate
11:32PM -13.8612 67.9598 235° Southwest  Level FlightAware Approximate
11:33PM -13.9253 67.8659 235° Southwest  Level FlightAware Approximate
11:34PM -13.9894 67.7719 235° Southwest  Level FlightAware Approximate
11:35PM -14.0534 67.6779 235° Southwest  Level FlightAware Approximate
11:36PM -14.1174 67.5839 235° Southwest  Level FlightAware Approximate
11:37PM -14.1813 67.4898 235° Southwest  Level FlightAware Approximate
11:38PM -14.2452 67.3956 235° Southwest  Level FlightAware Approximate
11:39PM -14.3091 67.3014 235° Southwest  Level FlightAware Approximate
11:40PM -14.3729 67.2072 235° Southwest  Level FlightAware Approximate
11:41PM -14.4367 67.1128 235° Southwest  Level FlightAware Approximate
11:42PM -14.5004 67.0185 235° Southwest  Level FlightAware Approximate
11:43PM -14.5641 66.9240 235° Southwest  Level FlightAware Approximate
11:44PM -14.6278 66.8296 235° Southwest  Level FlightAware Approximate
11:45PM -14.6915 66.7350 235° Southwest  Level FlightAware Approximate
11:46PM -14.7551 66.6404 235° Southwest  Level FlightAware Approximate
11:47PM -14.8186 66.5458 235° Southwest  Level FlightAware Approximate
11:48PM -14.8821 66.4511 235° Southwest  Level FlightAware Approximate
11:49PM -14.9456 66.3563 235° Southwest  Level FlightAware Approximate
11:50PM -15.0091 66.2615 235° Southwest  Level FlightAware Approximate
11:51PM -15.0725 66.1667 235° Southwest  Level FlightAware Approximate
11:52PM -15.1358 66.0717 235° Southwest  Level FlightAware Approximate
11:53PM -15.1992 65.9768 235° Southwest  Level FlightAware Approximate
11:54PM -15.2625 65.8817 235° Southwest  Level FlightAware Approximate
11:55PM -15.3257 65.7866 235° Southwest  Level FlightAware Approximate
11:56PM -15.3889 65.6915 235° Southwest  Level FlightAware Approximate
11:57PM -15.4521 65.5963 235° Southwest  Level FlightAware Approximate
11:58PM -15.5152 65.5010 235° Southwest  Level FlightAware Approximate
11:59PM -15.5783 65.4056 236° Southwest  Level FlightAware Approximate
12:00AM -15.6413 65.3103 236° Southwest  Level FlightAware Approximate
12:01AM -15.7043 65.2148 236° Southwest  Level FlightAware Approximate
12:02AM -15.7673 65.1193 236° Southwest  Level FlightAware Approximate
12:03AM -15.8305 65.0240 236° Southwest  Level Estimated
12:04AM -15.8934 64.9283 236° Southwest  Level FlightAware Approximate
12:05AM -15.9562 64.8327 236° Southwest  Level FlightAware Approximate
12:06AM -16.0190 64.7369 236° Southwest  Level FlightAware Approximate
12:07AM -16.0818 64.6411 236° Southwest  Level FlightAware Approximate
12:08AM -16.1445 64.5452 236° Southwest  Level FlightAware Approximate
12:09AM -16.2071 64.4493 236° Southwest  Level FlightAware Approximate
12:10AM -16.2698 64.3533 236° Southwest  Level FlightAware Approximate
12:11AM -16.3323 64.2573 236° Southwest  Level FlightAware Approximate
12:12AM -16.3949 64.1612 236° Southwest  Level FlightAware Approximate
12:13AM -16.4574 64.0650 236° Southwest  Level FlightAware Approximate
12:14AM -16.5198 63.9688 236° Southwest  Level FlightAware Approximate
12:15AM -16.5822 63.8725 236° Southwest  Level FlightAware Approximate
12:16AM -16.6446 63.7761 236° Southwest  Level FlightAware Approximate
12:17AM -16.7069 63.6797 236° Southwest  Level FlightAware Approximate
12:18AM -16.7692 63.5832 236° Southwest  Level FlightAware Approximate
12:19AM -16.8314 63.4867 236° Southwest  Level FlightAware Approximate
12:20AM -16.8936 63.3901 236° Southwest  Level FlightAware Approximate
12:21AM -16.9557 63.2934 236° Southwest  Level FlightAware Approximate
12:22AM -17.0178 63.1967 236° Southwest  Level FlightAware Approximate
12:23AM -17.0798 63.0999 236° Southwest  Level FlightAware Approximate
12:24AM -17.1418 63.0030 236° Southwest  Level FlightAware Approximate
12:25AM -17.2038 62.9061 236° Southwest  Level FlightAware Approximate
12:26AM -17.2657 62.8091 236° Southwest  Level FlightAware Approximate
12:27AM -17.3276 62.7120 236° Southwest  Level FlightAware Approximate
12:28AM -17.3894 62.6149 236° Southwest  Level FlightAware Approximate
12:29AM -17.4511 62.5177 236° Southwest  Level FlightAware Approximate
12:30AM -17.5129 62.4205 236° Southwest  Level FlightAware Approximate
12:31AM -17.5745 62.3231 236° Southwest  Level FlightAware Approximate
12:32AM -17.6362 62.2257 236° Southwest  Level FlightAware Approximate
12:33AM -17.6977 62.1283 236° Southwest  Level FlightAware Approximate
12:34AM -17.7593 62.0308 236° Southwest  Level FlightAware Approximate
12:35AM -17.8207 61.9332 236° Southwest  Level FlightAware Approximate
12:36AM -17.8822 61.8355 237° Southwest  Level FlightAware Approximate
12:37AM -17.9436 61.7378 237° Southwest  Level FlightAware Approximate
12:38AM -18.0049 61.6400 237° Southwest  Level FlightAware Approximate
12:39AM -18.0662 61.5421 237° Southwest  Level FlightAware Approximate
12:40AM -18.1274 61.4442 237° Southwest  Level FlightAware Approximate
12:41AM -18.1886 61.3462 237° Southwest  Level FlightAware Approximate
12:42AM -18.2497 61.2482 237° Southwest  Level FlightAware Approximate
12:43AM -18.3108 61.1500 237° Southwest  Level FlightAware Approximate
12:44AM -18.3718 61.0518 237° Southwest  Level FlightAware Approximate
12:45AM -18.4328 60.9535 237° Southwest  Level FlightAware Approximate
12:46AM -18.4938 60.8552 237° Southwest  Level FlightAware Approximate
12:47AM -18.5546 60.7568 237° Southwest  Level FlightAware Approximate
12:48AM -18.6155 60.6583 237° Southwest  Level FlightAware Approximate
12:49AM -18.6763 60.5598 237° Southwest  Level FlightAware Approximate
12:50AM -18.7370 60.4611 237° Southwest  Level FlightAware Approximate
12:51AM -18.7977 60.3624 237° Southwest  Level FlightAware Approximate
12:52AM -18.8583 60.2637 237° Southwest  Level FlightAware Approximate
12:53AM -18.9189 60.1648 237° Southwest  Level FlightAware Approximate
12:54AM -18.9794 60.0659 237° Southwest  Level FlightAware Approximate